Time;durP1;ratioP1;P1;durP2;ratioP2;P2;SDS_P1;SDS_P2;PMS_P1;PMS_P2;Temp;Humidity;BMP_temperature;BMP_pressure;BME280_temperature;BME280_humidity;BME280_pressure;Samples;Min_cycle;Max_cycle;Signal;HPM_P1;HPM_P2
2021/10/14 00:00:49;;;;;;;42.20;18.73;;;;;;;5.50;83.12;101295.48;4889905;60;1139024;-86
2021/10/14 00:05:54;;;;;;;37.57;17.77;;;;;;;5.44;83.00;101290.03;4889343;60;1139317;-81
2021/10/14 00:11:01;;;;;;;41.37;19.37;;;;;;;5.33;82.72;101303.23;4889373;60;1139217;-81
2021/10/14 00:16:07;;;;;;;34.45;16.62;;;;;;;5.24;82.87;101300.53;4889212;59;1139158;-84
2021/10/14 00:21:13;;;;;;;38.17;19.13;;;;;;;5.21;82.90;101288.86;4889752;60;1139029;-84
2021/10/14 00:26:19;;;;;;;41.90;20.07;;;;;;;5.26;83.21;101275.09;4894599;60;1141044;-84
2021/10/14 00:31:24;;;;;;;35.23;16.87;;;;;;;5.28;83.41;101272.80;4855598;60;1136960;-84
2021/10/14 00:36:30;;;;;;;20.30;9.77;;;;;;;5.28;83.61;101274.57;4885167;60;1136956;-85
2021/10/14 00:41:36;;;;;;;18.37;8.85;;;;;;;5.19;83.52;101268.43;4852895;60;1134958;-83
2021/10/14 00:46:51;;;;;;;18.13;9.60;;;;;;;5.05;83.88;101273.38;4829715;61;1135160;-81
2021/10/14 00:51:56;;;;;;;16.53;7.90;;;;;;;4.99;84.14;101274.52;4830302;61;1134830;-84
2021/10/14 00:57:02;;;;;;;15.40;7.23;;;;;;;4.99;84.44;101267.11;4829987;61;1136965;-84
2021/10/14 01:02:09;;;;;;;13.00;7.47;;;;;;;4.98;84.80;101261.47;4829744;61;1137466;-87
2021/10/14 01:07:15;;;;;;;12.80;6.70;;;;;;;4.95;85.24;101259.83;4829536;61;1136966;-87
2021/10/14 01:12:22;;;;;;;9.43;5.77;;;;;;;4.86;85.78;101241.42;4829888;61;1134835;-82
2021/10/14 01:17:28;;;;;;;12.30;6.93;;;;;;;4.85;86.14;101225.31;4838438;61;1133222;-85
2021/10/14 01:22:34;;;;;;;9.93;6.40;;;;;;;4.88;86.38;101224.33;4909946;60;1137093;-86
2021/10/14 01:27:39;;;;;;;13.90;6.23;;;;;;;4.98;86.70;101226.09;4844466;60;1134911;-88
2021/10/14 01:32:49;;;;;;;15.53;7.77;;;;;;;5.01;86.93;101222.88;4830662;61;1136954;-83
2021/10/14 01:37:52;;;;;;;13.30;7.23;;;;;;;5.00;87.16;101231.66;4895515;60;1134862;-83
2021/10/14 01:42:59;;;;;;;10.57;5.77;;;;;;;4.98;87.45;101228.25;4900587;60;1134913;-84
2021/10/14 01:48:04;;;;;;;12.47;6.27;;;;;;;5.00;87.75;101229.50;4898690;60;1136892;-83
2021/10/14 01:53:11;;;;;;;9.33;6.03;;;;;;;5.00;88.18;101232.97;4898825;59;1134829;-81
2021/10/14 01:58:18;;;;;;;14.90;7.00;;;;;;;5.01;88.62;101226.81;4898906;60;1130653;-81
2021/10/14 02:03:24;;;;;;;12.90;6.60;;;;;;;5.05;88.81;101223.58;4899181;60;1137009;-82
2021/10/14 02:08:30;;;;;;;11.08;6.03;;;;;;;5.11;89.13;101222.86;4899131;60;1139023;-81
2021/10/14 02:13:36;;;;;;;12.75;7.17;;;;;;;5.11;89.57;101221.55;4899162;60;1138978;-85
2021/10/14 02:18:44;;;;;;;15.07;7.10;;;;;;;5.11;89.74;101223.32;4898915;60;1137047;-84
2021/10/14 02:23:50;;;;;;;17.40;7.20;;;;;;;5.13;89.83;101227.58;4899290;60;1139006;-81
2021/10/14 02:28:56;;;;;;;16.97;8.10;;;;;;;5.18;90.01;101234.80;4899089;60;1139006;-82
2021/10/14 02:34:02;;;;;;;12.13;5.57;;;;;;;5.19;89.99;101240.44;4899091;60;1137211;-83
2021/10/14 02:39:08;;;;;;;10.90;6.60;;;;;;;5.23;90.11;101235.89;4899288;60;1139255;-81
2021/10/14 02:44:13;;;;;;;14.90;7.23;;;;;;;5.24;90.10;101240.21;4899375;60;1139081;-78
2021/10/14 02:49:20;;;;;;;14.70;7.67;;;;;;;5.23;90.23;101234.12;4899351;60;1137205;-82
2021/10/14 02:54:25;;;;;;;11.90;6.60;;;;;;;5.24;90.41;101237.59;4899205;60;1136966;-82
2021/10/14 02:59:31;;;;;;;12.60;8.13;;;;;;;5.23;90.55;101236.73;4898966;60;1139005;-79
2021/10/14 03:04:37;;;;;;;11.00;7.67;;;;;;;5.27;90.85;101229.14;4898993;60;1138982;-84
2021/10/14 03:09:43;;;;;;;12.30;7.17;;;;;;;5.29;90.93;101224.68;4899017;60;1139252;-85
2021/10/14 03:14:49;;;;;;;13.70;7.40;;;;;;;5.28;91.35;101219.04;4898935;60;1136941;-80
2021/10/14 03:19:55;;;;;;;13.60;6.77;;;;;;;5.29;91.33;101222.05;4898935;60;1139032;-82
2021/10/14 03:25:00;;;;;;;15.37;8.17;;;;;;;5.34;91.53;101227.56;4898977;60;1139069;-86
2021/10/14 03:30:08;;;;;;;14.40;8.50;;;;;;;5.36;91.62;101216.52;4785311;61;1139077;-86
2021/10/14 03:35:14;;;;;;;13.47;6.23;;;;;;;5.39;91.87;101225.11;4829892;61;1137145;-83
2021/10/14 03:40:19;;;;;;;12.83;7.13;;;;;;;5.41;91.76;101221.95;4838018;61;1139101;-83
2021/10/14 03:45:26;;;;;;;13.37;6.80;;;;;;;5.42;91.86;101217.56;4833999;61;1139113;-81
2021/10/14 03:50:32;;;;;;;13.10;6.93;;;;;;;5.39;92.12;101209.83;4826138;61;1138994;-81
2021/10/14 03:55:38;;;;;;;13.50;7.73;;;;;;;5.43;92.11;101211.40;4830676;61;1139202;-80
2021/10/14 04:00:44;;;;;;;15.57;8.07;;;;;;;5.48;92.10;101205.50;4833226;61;1139153;-83
2021/10/14 04:05:51;;;;;;;14.97;6.70;;;;;;;5.49;92.14;101211.98;4831268;61;1139025;-81
2021/10/14 04:10:58;;;;;;;12.17;6.10;;;;;;;5.48;92.94;101212.05;4838112;61;1136966;-80
2021/10/14 04:16:04;;;;;;;14.83;6.37;;;;;;;5.49;92.48;101209.82;4837181;61;1139162;-80
2021/10/14 04:21:10;;;;;;;15.33;7.03;;;;;;;5.50;92.55;101215.46;4831758;61;1138991;-78
2021/10/14 04:26:15;;;;;;;11.95;6.05;;;;;;;5.49;93.01;101204.12;4832822;61;1139074;-84
2021/10/14 04:31:21;;;;;;;15.87;6.53;;;;;;;5.48;92.92;101201.56;4820350;61;1137177;-83
2021/10/14 04:36:27;;;;;;;8.63;5.87;;;;;;;5.50;93.22;101200.55;4808889;61;1139272;-80
2021/10/14 04:41:33;;;;;;;12.17;5.60;;;;;;;5.51;93.04;101196.15;4809223;61;1136903;-83
2021/10/14 04:46:39;;;;;;;12.97;7.33;;;;;;;5.53;93.12;101193.84;4822118;60;1139011;-81
2021/10/14 04:51:45;;;;;;;18.50;7.60;;;;;;;5.53;93.26;101196.94;4832713;60;1136956;-85
2021/10/14 04:56:50;;;;;;;12.25;7.10;;;;;;;5.52;93.47;101200.47;4865119;60;1139183;-83
2021/10/14 05:01:56;;;;;;;9.20;5.27;;;;;;;5.51;93.73;101194.84;4864914;59;1139246;-80
2021/10/14 05:07:02;;;;;;;9.80;4.47;;;;;;;5.48;95.05;101190.61;4830595;60;1134817;-88
2021/10/14 05:12:08;;;;;;;11.83;6.00;;;;;;;5.51;94.90;101198.77;4832192;59;1136933;-82
2021/10/14 05:17:14;;;;;;;12.43;5.40;;;;;;;5.54;94.84;101198.17;4856866;59;1139061;-82
2021/10/14 05:22:20;;;;;;;12.43;6.20;;;;;;;5.57;94.93;101194.11;4918235;60;1139036;-85
2021/10/14 05:27:27;;;;;;;12.00;6.77;;;;;;;5.60;94.72;101197.05;4918630;60;1136928;-84
2021/10/14 05:32:33;;;;;;;9.88;6.25;;;;;;;5.58;95.46;101200.20;4918131;60;1137134;-84
2021/10/14 05:37:39;;;;;;;11.90;6.60;;;;;;;5.55;95.30;101189.84;4918869;60;1134824;-79
2021/10/14 05:42:44;;;;;;;13.53;6.93;;;;;;;5.59;95.15;101188.33;4918449;60;1137104;-78
2021/10/14 05:47:51;;;;;;;11.53;6.17;;;;;;;5.59;95.28;101189.64;4918132;60;1136901;-81
2021/10/14 05:52:57;;;;;;;13.20;7.13;;;;;;;5.58;95.72;101194.50;4917978;60;1137048;-82
2021/10/14 05:58:02;;;;;;;11.57;6.07;;;;;;;5.52;96.89;101180.80;4918204;60;1136980;-84
2021/10/14 06:03:08;;;;;;;13.87;7.10;;;;;;;5.52;96.89;101180.80;4872601;59;1136966;-84
2021/10/14 06:08:14;;;;;;;9.37;5.77;;;;;;;5.52;96.90;101186.05;4884021;60;1137295;-79
2021/10/14 06:13:20;;;;;;;7.43;4.83;;;;;;;5.49;97.22;101184.90;4917938;59;1134819;-83
2021/10/14 06:18:26;;;;;;;15.00;8.67;;;;;;;5.56;97.61;101188.92;4918078;59;1134805;-84
2021/10/14 06:23:32;;;;;;;11.60;6.90;;;;;;;5.59;97.01;101197.52;4918518;60;1136830;-84
2021/10/14 06:28:38;;;;;;;60.03;28.33;;;;;;;5.61;97.25;101196.14;4864553;60;1136984;-85
2021/10/14 06:33:44;;;;;;;16.33;8.73;;;;;;;5.66;97.54;101197.60;4842468;61;1139092;-85
2021/10/14 06:38:50;;;;;;;14.30;8.20;;;;;;;5.69;97.73;101204.48;4842275;61;1136875;-84
2021/10/14 06:43:55;;;;;;;13.30;6.20;;;;;;;5.74;97.37;101196.41;4842124;61;1137206;-85
2021/10/14 06:49:02;;;;;;;12.37;6.10;;;;;;;5.79;97.73;101192.66;4855745;60;1136838;-80
2021/10/14 06:54:08;;;;;;;11.17;7.50;;;;;;;5.79;98.34;101192.66;4918963;60;1136820;-77
2021/10/14 06:59:13;;;;;;;15.67;8.77;;;;;;;5.81;98.63;101201.75;4918562;60;1134843;-79
2021/10/14 07:04:19;;;;;;;17.30;7.97;;;;;;;5.85;98.76;101204.62;4917358;60;1134825;-82
2021/10/14 07:09:25;;;;;;;14.20;7.20;;;;;;;5.89;98.88;101207.53;4910830;60;1139302;-81
2021/10/14 07:14:30;;;;;;;14.97;6.97;;;;;;;5.95;98.83;101205.95;4916974;60;1139460;-81
2021/10/14 07:19:36;;;;;;;11.40;6.33;;;;;;;5.99;98.81;101201.77;4918791;60;1138997;-84
2021/10/14 07:24:42;;;;;;;17.27;9.57;;;;;;;6.05;98.79;101210.28;4918575;60;1139121;-85
2021/10/14 07:29:47;;;;;;;18.10;8.37;;;;;;;6.08;98.77;101200.95;4918290;59;1139076;-80
2021/10/14 07:34:53;;;;;;;11.37;5.43;;;;;;;6.14;99.02;101206.75;4917782;59;1139079;-80
2021/10/14 07:39:59;;;;;;;16.87;8.40;;;;;;;6.21;99.47;101209.94;4918051;59;1138995;-82
2021/10/14 07:45:06;;;;;;;14.60;8.27;;;;;;;6.25;98.97;101199.22;4918190;59;1138864;-85
2021/10/14 07:50:13;;;;;;;16.00;8.23;;;;;;;6.33;98.76;101205.39;4917940;60;1138948;-86
2021/10/14 07:55:18;;;;;;;14.97;9.27;;;;;;;6.42;98.88;101208.02;4898697;60;1139004;-81
2021/10/14 08:00:24;;;;;;;15.77;10.20;;;;;;;6.48;98.84;101200.70;4837740;61;1138996;-84
2021/10/14 08:05:30;;;;;;;12.73;7.33;;;;;;;6.54;99.28;101210.06;4838439;61;1141348;-84
2021/10/14 08:10:36;;;;;;;16.27;6.63;;;;;;;6.58;99.54;101201.08;4839046;61;1139108;-86
2021/10/14 08:15:49;;;;;;;10.40;6.67;;;;;;;6.64;99.73;101188.95;4839418;61;1139125;-82
2021/10/14 08:20:57;;;;;;;14.90;8.43;;;;;;;6.70;99.95;101194.77;4836638;60;1139009;-85
2021/10/14 08:26:02;;;;;;;18.60;8.77;;;;;;;6.79;99.64;101184.70;4830235;61;1139026;-79
2021/10/14 08:31:08;;;;;;;11.97;7.63;;;;;;;6.85;100.00;101182.61;4833487;60;1138909;-81
2021/10/14 08:36:15;;;;;;;11.90;7.47;;;;;;;6.91;100.00;101174.39;4833020;60;1141086;-83
2021/10/14 08:41:21;;;;;;;18.07;9.57;;;;;;;6.96;100.00;101174.16;4833312;60;1141332;-83
2021/10/14 08:46:28;;;;;;;14.07;6.63;;;;;;;6.97;100.00;101175.40;4833214;60;1141201;-85
2021/10/14 08:51:35;;;;;;;19.70;8.43;;;;;;;7.06;100.00;101170.95;4832431;60;1141079;-82
2021/10/14 08:56:47;;;;;;;11.20;6.80;;;;;;;7.19;100.00;101163.27;4832299;61;1141098;-79
2021/10/14 09:02:16;;;;;;;14.20;8.73;;;;;;;7.30;100.00;101161.39;4832321;61;1141105;-81
2021/10/14 09:07:25;;;;;;;21.23;11.15;;;;;;;7.37;100.00;101162.28;4674124;62;1141384;-79
2021/10/14 09:12:38;;;;;;;13.00;8.60;;;;;;;7.44;100.00;101160.19;4637535;63;1143399;-79
2021/10/14 09:17:56;;;;;;;26.77;11.40;;;;;;;7.50;100.00;101150.62;4618800;63;1141309;-80
2021/10/14 09:23:17;;;;;;;12.83;8.33;;;;;;;7.57;100.00;101143.25;4602807;63;1143368;-80
2021/10/14 09:28:29;;;;;;;15.47;10.00;;;;;;;7.63;100.00;101132.39;4691757;62;1139244;-80
2021/10/14 09:33:41;;;;;;;19.53;10.27;;;;;;;7.74;100.00;101128.69;4695374;62;1141264;-83
2021/10/14 09:38:54;;;;;;;16.13;10.20;;;;;;;7.85;100.00;101128.92;4706615;62;1141271;-83
2021/10/14 09:44:05;;;;;;;17.02;8.50;;;;;;;7.92;100.00;101118.90;4812554;60;1141092;-85
2021/10/14 09:49:12;;;;;;;22.87;9.90;;;;;;;7.97;100.00;101110.25;4831400;60;1139228;-81
2021/10/14 09:54:18;;;;;;;14.97;7.80;;;;;;;8.02;100.00;101107.73;4826160;60;1139025;-82
2021/10/14 09:59:24;;;;;;;20.93;10.60;;;;;;;8.11;100.00;101109.83;4756358;61;1139299;-80
2021/10/14 10:04:31;;;;;;;24.50;13.87;;;;;;;8.18;100.00;101098.95;4815110;60;1141163;-85
2021/10/14 10:09:40;;;;;;;18.33;10.13;;;;;;;8.23;100.00;101093.80;4830881;60;1141043;-82
2021/10/14 10:14:48;;;;;;;16.23;9.50;;;;;;;8.30;100.00;101096.91;4831023;60;1141112;-81
2021/10/14 10:19:55;;;;;;;18.80;12.47;;;;;;;8.31;100.00;101084.11;4830159;60;1137198;-83
2021/10/14 10:25:25;;;;;;;19.27;10.50;;;;;;;8.33;100.00;101083.12;4830355;59;1139034;-83
2021/10/14 10:30:40;;;;;;;29.60;14.93;;;;;;;8.36;100.00;101080.78;4798888;60;1143456;-85
2021/10/14 10:35:49;;;;;;;22.13;11.13;;;;;;;8.40;100.00;101079.66;4830681;60;1143150;-87
2021/10/14 10:40:58;;;;;;;15.43;10.33;;;;;;;8.42;100.00;101070.70;4830291;60;1143203;-81
2021/10/14 10:46:08;;;;;;;23.57;11.03;;;;;;;8.48;100.00;101073.91;4829717;59;1143253;-87
2021/10/14 10:51:32;;;;;;;19.50;9.73;;;;;;;8.47;100.00;101070.44;4830947;60;1143155;-84
2021/10/14 10:56:39;;;;;;;16.50;10.60;;;;;;;8.50;100.00;101068.09;4825455;60;1141163;-82
2021/10/14 11:01:44;;;;;;;17.17;9.60;;;;;;;8.49;100.00;101061.97;4831342;60;1143269;-79
2021/10/14 11:06:54;;;;;;;14.73;10.50;;;;;;;8.53;100.00;101046.82;4831463;60;1141344;-84
2021/10/14 11:12:05;;;;;;;17.32;9.53;;;;;;;8.53;100.00;101046.82;4831109;60;1143278;-86
2021/10/14 11:17:13;;;;;;;28.13;15.33;;;;;;;8.58;100.00;101052.17;4831218;60;1141363;-81
2021/10/14 11:22:20;;;;;;;18.47;11.63;;;;;;;8.62;100.00;101043.61;4841176;59;1143343;-77
2021/10/14 11:27:25;;;;;;;27.15;11.35;;;;;;;8.67;100.00;101040.23;4904399;60;1143215;-91
2021/10/14 11:32:43;;;;;;;18.20;9.57;;;;;;;8.67;100.00;101041.55;4895177;60;1143346;-78
2021/10/14 11:37:42;;;;;;;15.23;9.67;;;;;;;8.66;100.00;101032.79;4894362;60;1141051;-81
2021/10/14 11:42:48;;;;;;;17.67;9.67;;;;;;;8.66;100.00;101034.11;4895503;60;1141098;-85
2021/10/14 11:47:53;;;;;;;35.60;12.13;;;;;;;8.67;100.00;101037.13;4895175;60;1141172;-82
2021/10/14 11:53:04;;;;;;;23.60;9.63;;;;;;;8.71;100.00;101039.92;4895013;60;1143176;-76
2021/10/14 11:58:11;;;;;;;23.50;10.90;;;;;;;8.74;100.00;101047.66;4909116;60;1141094;-82
2021/10/14 12:03:19;;;;;;;17.97;8.50;;;;;;;8.78;100.00;101037.30;4913427;60;1143294;-80
2021/10/14 12:08:26;;;;;;;19.20;13.00;;;;;;;8.81;100.00;101030.52;4913007;60;1141310;-77
2021/10/14 12:13:32;;;;;;;102.20;45.40;;;;;;;8.85;100.00;101023.28;4913449;60;1143205;-85
2021/10/14 12:18:38;;;;;;;41.47;19.83;;;;;;;8.87;100.00;101013.92;4912475;60;1145272;-81
2021/10/14 12:23:44;;;;;;;24.60;17.87;;;;;;;8.91;100.00;100996.97;4894591;60;1143285;-83
2021/10/14 12:28:50;;;;;;;9.87;7.10;;;;;;;8.96;100.00;101001.02;4835606;60;1141067;-81
2021/10/14 12:33:59;;;;;;;7.50;5.03;;;;;;;9.00;100.00;100993.30;4831228;60;1136855;-82
2021/10/14 12:39:08;;;;;;;6.70;5.93;;;;;;;9.03;100.00;100990.91;4831117;60;1136938;-83
2021/10/14 12:44:14;;;;;;;7.23;6.17;;;;;;;9.08;100.00;100991.47;4828381;60;1136967;-80
2021/10/14 12:49:27;;;;;;;9.83;6.93;;;;;;;9.15;100.00;100980.91;4814444;60;1137157;-80
2021/10/14 12:54:29;;;;;;;9.20;6.80;;;;;;;9.16;100.00;100983.45;4833523;60;1137127;-81
2021/10/14 12:59:38;;;;;;;8.37;7.53;;;;;;;9.15;100.00;100992.31;4892952;60;1136974;-79
2021/10/14 13:04:42;;;;;;;8.20;7.13;;;;;;;9.15;100.00;100992.31;4902238;60;1136997;-86
2021/10/14 13:09:48;;;;;;;10.47;7.93;;;;;;;9.17;100.00;100988.23;4904008;59;1137006;-77
2021/10/14 13:14:54;;;;;;;13.87;8.70;;;;;;;9.21;100.00;100978.33;4905916;60;1139221;-85
2021/10/14 13:20:00;;;;;;;10.17;7.60;;;;;;;9.22;100.00;100976.07;4902221;60;1139002;-83
2021/10/14 13:25:06;;;;;;;38.03;16.17;;;;;;;9.22;100.00;100978.70;4896301;60;1139287;-82
2021/10/14 13:30:13;;;;;;;24.23;15.03;;;;;;;9.21;100.00;100976.54;4917433;60;1141332;-83
2021/10/14 13:35:20;;;;;;;28.93;16.87;;;;;;;9.24;100.00;100971.07;4917404;60;1141190;-81
2021/10/14 13:40:27;;;;;;;37.03;21.80;;;;;;;9.26;100.00;100959.95;4913165;60;1141249;-80
2021/10/14 13:45:32;;;;;;;42.53;25.20;;;;;;;9.28;100.00;100953.25;4903309;60;1139027;-82
2021/10/14 13:50:43;;;;;;;20.10;13.00;;;;;;;9.30;100.00;100939.02;4911001;60;1139074;-82
2021/10/14 13:55:49;;;;;;;15.17;10.30;;;;;;;9.34;100.00;100940.95;4899855;60;1143352;-83
2021/10/14 14:00:54;;;;;;;16.00;10.43;;;;;;;9.37;100.00;100938.12;4917256;60;1143112;-83
2021/10/14 14:06:00;;;;;;;16.67;11.38;;;;;;;9.40;100.00;100940.56;4905930;60;1143125;-84
2021/10/14 14:11:06;;;;;;;8.57;7.00;;;;;;;9.44;100.00;100944.70;4909097;60;1143138;-77
2021/10/14 14:16:12;;;;;;;68.60;61.90;;;;;;;9.46;100.00;100936.20;4910849;60;1139035;-82
2021/10/14 14:21:19;;;;;;;39.07;34.90;;;;;;;9.47;100.00;100924.70;4902668;60;1143215;-80
2021/10/14 14:26:25;;;;;;;10.37;8.53;;;;;;;9.52;100.00;100924.75;4889463;60;1143363;-80
2021/10/14 14:31:31;;;;;;;9.17;7.93;;;;;;;9.56;100.00;100931.16;4914431;60;1141068;-81
2021/10/14 14:36:37;;;;;;;11.87;7.97;;;;;;;9.57;100.00;100926.24;4906491;60;1139001;-80
2021/10/14 14:41:45;;;;;;;8.10;6.53;;;;;;;9.56;100.00;100924.55;4906018;60;1141092;-80
2021/10/14 14:46:55;;;;;;;9.90;6.37;;;;;;;9.55;100.00;100927.66;4906309;60;1139112;-79
2021/10/14 14:51:59;;;;;;;35.53;14.83;;;;;;;9.55;100.00;100927.66;4906522;60;1139054;-84
2021/10/14 14:57:07;;;;;;;22.73;9.93;;;;;;;9.54;100.00;100923.33;4916527;60;1143200;-84
2021/10/14 15:02:16;;;;;;;12.07;6.23;;;;;;;9.55;100.00;100921.06;4892956;60;1141120;-85
2021/10/14 15:07:23;;;;;;;5.90;4.83;;;;;;;9.55;100.00;100921.53;4852077;60;1141062;-82
2021/10/14 15:12:28;;;;;;;21.33;14.07;;;;;;;9.56;100.00;100921.91;4840881;60;1138943;-82
2021/10/14 15:17:34;;;;;;;239.08;136.28;;;;;;;9.53;100.00;100922.48;4840851;60;1143193;-83
2021/10/14 15:22:40;;;;;;;175.13;55.87;;;;;;;9.55;100.00;100919.74;4840682;60;1147423;-83
2021/10/14 15:27:47;;;;;;;101.02;50.63;;;;;;;9.54;100.00;100915.41;4876070;60;1145281;-84
2021/10/14 15:32:57;;;;;;;126.40;61.50;;;;;;;9.53;100.00;100922.48;4905528;60;1145357;-80
2021/10/14 15:38:06;;;;;;;203.43;77.83;;;;;;;9.52;100.00;100918.62;4905712;60;1145451;-82
2021/10/14 15:43:12;;;;;;;63.40;18.50;;;;;;;9.55;100.00;100917.10;4828939;61;1145474;-84
2021/10/14 15:48:17;;;;;;;29.83;18.43;;;;;;;9.56;100.00;100910.88;4906032;60;1143118;-84
2021/10/14 15:53:24;;;;;;;56.60;24.90;;;;;;;9.59;100.00;100898.79;4905888;60;1143351;-82
2021/10/14 15:58:29;;;;;;;26.80;16.03;;;;;;;9.59;100.00;100901.43;4905675;60;1143173;-82
2021/10/14 16:03:35;;;;;;;19.35;10.88;;;;;;;9.61;100.00;100900.02;4903721;60;1143367;-86
2021/10/14 16:08:43;;;;;;;17.77;9.83;;;;;;;9.62;100.00;100895.10;4921519;60;21208;-86
2021/10/14 16:13:49;;;;;;;41.60;19.13;;;;;;;9.63;100.00;100896.77;4901324;60;1136869;-86
2021/10/14 16:18:55;;;;;;;17.80;8.83;;;;;;;9.64;100.00;100893.17;4919407;60;21161;-84
2021/10/14 16:24:01;;;;;;;18.77;11.70;;;;;;;9.64;100.00;100890.53;4900801;60;1136898;-82
2021/10/14 16:29:08;;;;;;;13.40;10.37;;;;;;;9.67;100.00;100896.94;4901367;60;1143240;-83
2021/10/14 16:34:25;;;;;;;12.50;9.27;;;;;;;9.67;100.00;100889.86;4903965;60;1143318;-83
2021/10/14 16:39:32;;;;;;;19.77;13.15;;;;;;;9.70;100.00;100887.02;4896287;60;1141062;-83
2021/10/14 16:44:38;;;;;;;20.10;14.23;;;;;;;9.70;100.00;100883.05;4884574;59;1143149;-83
2021/10/14 16:49:46;;;;;;;39.23;20.97;;;;;;;9.73;100.00;100879.36;4900821;60;1143202;-83
2021/10/14 16:54:52;;;;;;;48.90;21.47;;;;;;;9.74;100.00;100879.27;4895206;60;1143323;-84
2021/10/14 16:59:58;;;;;;;10.73;6.90;;;;;;;9.77;100.00;100865.85;4897291;59;1143188;-83
2021/10/14 17:05:06;;;;;;;7.37;6.67;;;;;;;9.77;100.00;100871.61;4898377;60;1141020;-84
2021/10/14 17:10:16;;;;;;;11.13;7.40;;;;;;;9.76;100.00;100869.92;4900396;59;1138678;-85
2021/10/14 17:15:22;;;;;;;5.90;5.30;;;;;;;9.76;100.00;100875.20;4906441;59;1141190;-82
2021/10/14 17:41:33;;;;;;;24.32;13.22;;;;;;;9.81;100.00;100844.01;4840613;61;1141163;-82
2021/10/14 17:46:56;;;;;;;27.37;13.03;;;;;;;9.82;100.00;100847.02;4841020;61;1141356;-83
2021/10/14 17:52:01;;;;;;;40.10;14.27;;;;;;;9.85;100.00;100843.70;4841159;61;1141132;-83
2021/10/14 17:57:07;;;;;;;9.60;6.57;;;;;;;9.87;100.00;100841.80;4840907;61;1141150;-83
2021/10/14 18:02:14;;;;;;;19.03;13.40;;;;;;;9.88;100.00;100837.36;4841156;61;1137006;-84
2021/10/14 18:07:32;;;;;;;19.35;12.33;;;;;;;9.87;100.00;100836.52;4841077;61;1141199;-84
2021/10/14 18:34:23;;;;;;;14.50;10.58;;;;;;;9.95;100.00;100820.11;4918425;60;1143095;-84
2021/10/14 18:39:15;;;;;;;24.33;13.53;;;;;;;9.97;100.00;100806.33;4914878;60;1143199;-83
2021/10/14 18:44:21;;;;;;;36.70;17.00;;;;;;;9.97;100.00;100806.33;4914033;60;1143189;-85
2021/10/14 18:49:28;;;;;;;12.90;11.50;;;;;;;9.98;100.00;100801.88;4908021;60;1143074;-85
2021/10/14 18:54:34;;;;;;;26.80;16.30;;;;;;;9.97;100.00;100805.00;4913881;60;1143168;-86
2021/10/14 19:04:58;;;;;;;28.10;14.93;;;;;;;10.00;100.00;100798.19;4907982;60;1143157;-86
2021/10/14 19:10:11;;;;;;;17.93;13.27;;;;;;;10.02;100.00;100797.60;4917344;59;1145236;-85
2021/10/14 19:15:06;;;;;;;16.10;11.13;;;;;;;10.02;100.00;100779.11;4907850;59;1145205;-84
2021/10/14 19:20:42;;;;;;;26.87;15.97;;;;;;;10.05;100.00;100778.05;4903491;60;1145381;-83
2021/10/14 20:24:30;;;;;;;21.73;12.60;;;;;;;10.54;100.00;100760.34;4862786;60;978383;-88
2021/10/14 20:29:36;;;;;;;20.00;10.33;;;;;;;10.57;100.00;100757.95;4837877;60;1143109;-85
2021/10/14 20:39:51;;;;;;;24.90;12.93;;;;;;;10.64;100.00;100761.00;4865332;60;1145212;-82
2021/10/14 20:44:55;;;;;;;16.77;10.57;;;;;;;10.66;100.00;100754.64;4851680;60;1145190;-82
2021/10/14 20:50:08;;;;;;;11.53;10.27;;;;;;;10.70;100.00;100757.41;4861384;60;1145188;-86
2021/10/14 21:05:46;;;;;;;31.67;15.80;;;;;;;10.76;100.00;100738.44;4836123;60;1145268;-84
2021/10/14 21:10:52;;;;;;;38.02;18.10;;;;;;;10.77;100.00;100741.45;4826765;60;1145232;-84
2021/10/14 21:15:58;;;;;;;28.47;14.70;;;;;;;10.78;100.00;100744.47;4767578;61;1145287;-86
2021/10/14 21:21:05;;;;;;;29.43;15.17;;;;;;;10.78;100.00;100746.27;4767105;61;1145433;-82
2021/10/14 21:26:22;;;;;;;19.10;11.67;;;;;;;10.77;100.00;100741.92;4782546;61;1145302;-83
2021/10/14 21:31:40;;;;;;;14.90;10.27;;;;;;;10.78;100.00;100740.49;4833182;61;1145228;-83
2021/10/14 21:36:30;;;;;;;12.80;9.60;;;;;;;10.77;100.00;100736.64;4820471;61;1145353;-83
2021/10/14 21:41:35;;;;;;;14.57;9.87;;;;;;;10.76;100.00;100729.18;4825280;61;1141172;-83
2021/10/14 21:46:41;;;;;;;12.00;8.50;;;;;;;10.75;100.00;100727.97;4825288;61;1141202;-83
2021/10/14 21:51:48;;;;;;;13.40;9.57;;;;;;;10.75;100.00;100727.49;4826949;61;1141014;-83
2021/10/14 21:56:53;;;;;;;14.00;8.83;;;;;;;10.75;100.00;100732.78;4829255;60;1141137;-83
2021/10/14 22:01:59;;;;;;;11.47;8.80;;;;;;;10.78;100.00;100721.98;4829327;60;1141357;-83
2021/10/14 22:07:07;;;;;;;14.63;9.57;;;;;;;10.78;100.00;100725.10;4829074;61;1141087;-83
2021/10/14 22:12:13;;;;;;;16.10;10.33;;;;;;;10.79;100.00;100715.73;4905879;60;1141504;-82
2021/10/14 22:17:19;;;;;;;15.23;10.98;;;;;;;10.81;100.00;100714.30;4829117;61;1143478;-84
2021/10/14 22:22:25;;;;;;;14.93;9.93;;;;;;;10.81;100.00;100712.48;4841348;60;1143185;-84
2021/10/14 22:27:31;;;;;;;15.67;9.93;;;;;;;10.83;100.00;100701.80;4811959;61;1141094;-83
2021/10/14 22:32:38;;;;;;;12.13;9.43;;;;;;;10.83;100.00;100705.28;4882747;60;1141153;-83
2021/10/14 22:37:44;;;;;;;12.17;9.67;;;;;;;10.82;100.00;100709.36;4842745;60;1141163;-85
2021/10/14 22:42:50;;;;;;;10.17;8.03;;;;;;;10.82;100.00;100702.75;4842852;60;1141153;-85
2021/10/14 22:47:56;;;;;;;12.27;9.67;;;;;;;10.82;100.00;100702.75;4842723;60;1141172;-83
2021/10/14 22:53:03;;;;;;;12.83;9.93;;;;;;;10.82;100.00;100698.78;4823460;60;1141092;-81
2021/10/14 22:58:08;;;;;;;13.57;9.27;;;;;;;10.82;100.00;100694.81;4814129;61;1141117;-83
2021/10/14 23:03:14;;;;;;;17.13;9.83;;;;;;;10.81;100.00;100691.33;4814482;61;1141321;-86
2021/10/14 23:08:19;;;;;;;12.53;9.77;;;;;;;10.82;100.00;100686.40;4814362;61;1141060;-82
2021/10/14 23:13:25;;;;;;;16.20;10.37;;;;;;;10.82;100.00;100689.05;4814639;61;1139049;-83
2021/10/14 23:18:31;;;;;;;16.13;11.50;;;;;;;10.82;100.00;100685.08;4814478;61;1141178;-82
2021/10/14 23:23:40;;;;;;;16.47;11.47;;;;;;;10.82;100.00;100671.84;4814352;61;1145216;-84
2021/10/14 23:28:46;;;;;;;13.13;10.03;;;;;;;10.83;100.00;100670.05;4758709;61;1145373;-83
2021/10/14 23:33:52;;;;;;;12.53;9.23;;;;;;;10.83;100.00;100673.53;4848860;59;1145195;-83
2021/10/14 23:38:59;;;;;;;15.00;11.87;;;;;;;10.82;100.00;100677.14;4914828;60;1143109;-83
2021/10/14 23:44:05;;;;;;;17.37;10.67;;;;;;;10.80;100.00;100675.09;4915180;60;1145199;-86
2021/10/14 23:49:11;;;;;;;10.70;8.53;;;;;;;10.79;100.00;100664.14;4915469;60;1145266;-82
2021/10/14 23:54:17;;;;;;;12.97;8.90;;;;;;;10.80;100.00;100667.15;4919025;60;1143233;-85
2021/10/14 23:59:23;;;;;;;12.23;8.73;;;;;;;10.78;100.00;100658.95;4917732;60;1143370;-86
